createdAt,value
2023-03-12T00:00:10.915Z,3.40
2023-03-12T00:01:10.898Z,3.50
2023-03-12T00:02:10.927Z,3.80
2023-03-12T00:03:11.070Z,3.50
2023-03-12T00:04:11.378Z,3.40
2023-03-12T00:05:11.300Z,3.80
2023-03-12T00:06:11.511Z,3.60
2023-03-12T00:07:11.504Z,3.40
2023-03-12T00:08:10.856Z,3.40
2023-03-12T00:09:11.514Z,3.70
2023-03-12T00:10:11.190Z,3.70
2023-03-12T00:11:10.824Z,3.80
2023-03-12T00:12:11.532Z,3.30
2023-03-12T00:13:10.802Z,4.10
2023-03-12T00:14:10.804Z,3.30
2023-03-12T00:15:11.349Z,3.40
2023-03-12T00:16:10.865Z,3.50
2023-03-12T00:17:10.831Z,3.60
2023-03-12T00:18:10.803Z,3.50
2023-03-12T00:19:10.772Z,3.40
2023-03-12T00:20:10.781Z,3.40
2023-03-12T00:21:10.752Z,3.20
2023-03-12T00:22:10.891Z,3.30
2023-03-12T00:23:10.810Z,3.40
2023-03-12T00:24:10.866Z,3.60
2023-03-12T00:25:10.729Z,3.50
2023-03-12T00:26:10.759Z,3.30
2023-03-12T00:27:10.919Z,3.60
2023-03-12T00:28:10.757Z,3.50
2023-03-12T00:29:10.782Z,3.70
2023-03-12T00:30:10.697Z,3.50
2023-03-12T00:31:10.779Z,3.40
2023-03-12T00:32:10.725Z,3.40
2023-03-12T00:33:10.745Z,3.70
2023-03-12T00:34:10.703Z,3.50
2023-03-12T00:35:10.678Z,3.50
2023-03-12T00:36:10.921Z,3.30
2023-03-12T00:37:10.744Z,3.50
2023-03-12T00:38:10.682Z,3.60
2023-03-12T00:39:10.901Z,3.80
2023-03-12T00:40:10.650Z,3.50
2023-03-12T00:41:10.916Z,3.70
2023-03-12T00:42:10.923Z,3.50
2023-03-12T00:43:10.939Z,3.40
2023-03-12T00:44:10.599Z,3.90
2023-03-12T00:45:10.598Z,3.80
2023-03-12T00:46:10.666Z,3.40
2023-03-12T00:47:10.852Z,3.40
2023-03-12T00:48:10.996Z,3.40
2023-03-12T00:49:10.576Z,3.40
2023-03-12T00:50:10.556Z,3.30
2023-03-12T00:51:10.626Z,3.40
2023-03-12T00:52:10.565Z,3.50
2023-03-12T00:53:10.545Z,3.20
2023-03-12T00:54:10.567Z,3.10
2023-03-12T00:55:11.089Z,3.10
2023-03-12T00:56:10.814Z,3.60
2023-03-12T00:57:10.821Z,3.30
2023-03-12T00:58:10.504Z,3.40
2023-03-12T00:59:11.142Z,3.40
2023-03-12T01:00:10.542Z,3.80
2023-03-12T01:01:10.557Z,3.40
2023-03-12T01:02:10.491Z,3.10
2023-03-12T01:03:11.143Z,3.20
2023-03-12T01:04:10.535Z,3.60
2023-03-12T01:05:10.472Z,3.20
2023-03-12T01:06:10.472Z,3.20
2023-03-12T01:07:10.882Z,3.00
2023-03-12T01:08:10.476Z,3.30
2023-03-12T01:09:10.465Z,3.40
2023-03-12T01:10:10.456Z,3.20
2023-03-12T01:11:10.463Z,2.90
2023-03-12T01:12:10.492Z,3.50
2023-03-12T01:13:10.503Z,3.30
2023-03-12T01:14:10.518Z,3.10
2023-03-12T01:15:10.521Z,3.00
2023-03-12T01:16:10.552Z,3.30
2023-03-12T01:17:10.631Z,3.00
2023-03-12T01:18:10.560Z,3.10
2023-03-12T01:19:10.418Z,3.00
2023-03-12T01:20:10.591Z,2.90
2023-03-12T01:21:10.443Z,2.90
2023-03-12T01:22:10.654Z,3.40
2023-03-12T01:23:10.451Z,3.40
2023-03-12T01:24:10.377Z,3.20
2023-03-12T01:25:10.402Z,3.20
2023-03-12T01:26:10.389Z,3.10
2023-03-12T01:27:10.406Z,3.00
2023-03-12T01:28:10.365Z,3.20
2023-03-12T01:29:10.799Z,3.10
2023-03-12T01:30:10.600Z,2.90
2023-03-12T01:31:10.907Z,3.30
2023-03-12T01:32:10.738Z,3.10
2023-03-12T01:33:10.315Z,3.30
2023-03-12T01:34:10.317Z,3.20
2023-03-12T01:35:10.684Z,3.10
2023-03-12T01:36:10.822Z,3.30
2023-03-12T01:37:10.879Z,3.50
2023-03-12T01:38:10.544Z,3.20
2023-03-12T01:39:10.353Z,3.10
2023-03-12T01:40:10.873Z,3.10
2023-03-12T01:41:10.875Z,3.30
2023-03-12T01:42:10.469Z,3.20
2023-03-12T01:43:10.281Z,3.20
2023-03-12T01:44:10.278Z,3.00
2023-03-12T01:45:10.221Z,2.90
2023-03-12T01:46:10.242Z,3.10
2023-03-12T01:47:10.302Z,3.10
2023-03-12T01:48:10.218Z,3.00
2023-03-12T01:49:10.444Z,3.00
2023-03-12T01:50:10.216Z,2.90
2023-03-12T01:51:10.224Z,3.00
2023-03-12T01:52:10.570Z,2.90
2023-03-12T01:53:10.438Z,3.10
2023-03-12T01:54:10.188Z,2.80
2023-03-12T01:55:10.297Z,3.00
2023-03-12T01:56:10.164Z,3.10
2023-03-12T01:57:10.336Z,3.20
2023-03-12T01:58:10.182Z,3.10
2023-03-12T01:59:10.374Z,3.00
2023-03-12T02:00:10.137Z,3.00
2023-03-12T02:01:10.372Z,3.30
2023-03-12T02:02:10.606Z,3.20
2023-03-12T02:03:10.143Z,2.80
2023-03-12T02:04:10.403Z,3.00
2023-03-12T02:05:10.119Z,2.80
2023-03-12T02:06:10.128Z,3.50
2023-03-12T02:07:10.151Z,2.90
2023-03-12T02:08:10.146Z,2.90
2023-03-12T02:09:10.149Z,2.80
2023-03-12T02:10:10.280Z,3.00
2023-03-12T02:11:10.263Z,2.90
2023-03-12T02:12:10.375Z,3.00
2023-03-12T02:13:10.175Z,2.90
2023-03-12T02:14:10.100Z,3.00
2023-03-12T02:15:11.510Z,2.90
2023-03-12T02:16:10.224Z,2.90
2023-03-12T02:17:10.211Z,3.00
2023-03-12T02:18:10.208Z,3.20
2023-03-12T02:19:10.228Z,2.90
2023-03-12T02:20:10.012Z,3.20
2023-03-12T02:21:10.225Z,3.00
2023-03-12T02:22:10.036Z,2.90
2023-03-12T02:23:09.993Z,2.70
2023-03-12T02:24:10.036Z,3.10
2023-03-12T02:25:09.965Z,2.90
2023-03-12T02:26:10.002Z,2.80
2023-03-12T02:27:09.997Z,2.90
2023-03-12T02:28:09.953Z,2.70
2023-03-12T02:29:10.367Z,2.80
2023-03-12T02:30:09.947Z,3.00
2023-03-12T02:31:09.925Z,2.60
2023-03-12T02:32:09.954Z,2.70
2023-03-12T02:33:09.911Z,2.80
2023-03-12T02:34:09.906Z,2.50
2023-03-12T02:35:09.903Z,2.60
2023-03-12T02:36:09.985Z,2.40
2023-03-12T02:37:09.903Z,2.70
2023-03-12T02:38:09.877Z,3.00
2023-03-12T02:39:09.884Z,2.80
2023-03-12T02:40:09.946Z,2.80
2023-03-12T02:41:09.957Z,2.90
2023-03-12T02:42:09.966Z,2.80
2023-03-12T02:43:09.975Z,2.80
2023-03-12T02:44:09.914Z,2.60
2023-03-12T02:45:09.981Z,2.70
2023-03-12T02:46:10.074Z,2.70
2023-03-12T02:47:09.990Z,2.90
2023-03-12T02:48:09.825Z,2.80
2023-03-12T02:49:09.801Z,2.80
2023-03-12T02:50:09.888Z,3.00
2023-03-12T02:51:10.103Z,3.10
2023-03-12T02:52:10.117Z,3.30
2023-03-12T02:53:10.118Z,3.70
2023-03-12T02:54:10.120Z,3.70
2023-03-12T02:55:10.129Z,3.60
2023-03-12T02:56:10.142Z,4.00
2023-03-12T02:57:09.928Z,3.60
2023-03-12T02:58:09.749Z,3.50
2023-03-12T02:59:09.757Z,4.10
2023-03-12T03:00:09.758Z,3.40
2023-03-12T03:01:09.812Z,3.40
2023-03-12T03:02:09.775Z,2.90
2023-03-12T03:03:09.728Z,2.80
2023-03-12T03:04:09.930Z,2.80
2023-03-12T03:05:10.077Z,2.90
2023-03-12T03:06:09.919Z,2.40
2023-03-12T03:07:10.007Z,2.50
2023-03-12T03:08:10.023Z,2.50
2023-03-12T03:09:09.673Z,2.50
2023-03-12T03:10:10.016Z,2.80
2023-03-12T03:11:09.749Z,2.80
2023-03-12T03:12:10.166Z,2.30
2023-03-12T03:13:10.276Z,2.50
2023-03-12T03:14:09.645Z,2.70
2023-03-12T03:15:09.978Z,2.40
2023-03-12T03:16:09.804Z,2.20
2023-03-12T03:17:10.003Z,2.40
2023-03-12T03:18:09.628Z,2.40
2023-03-12T03:19:09.623Z,2.40
2023-03-12T03:20:09.843Z,2.60
2023-03-12T03:21:09.613Z,2.60
2023-03-12T03:22:10.482Z,2.40
2023-03-12T03:23:10.313Z,2.70
2023-03-12T03:24:09.634Z,2.20
2023-03-12T03:25:09.636Z,2.30
2023-03-12T03:26:09.644Z,2.70
2023-03-12T03:27:09.619Z,2.40
2023-03-12T03:28:09.663Z,2.30
2023-03-12T03:29:09.553Z,2.40
2023-03-12T03:30:10.376Z,2.60
2023-03-12T03:31:10.588Z,2.50
2023-03-12T03:32:09.649Z,2.40
2023-03-12T03:33:10.307Z,2.50
2023-03-12T03:34:09.530Z,2.40
2023-03-12T03:35:09.538Z,2.20
2023-03-12T03:36:11.011Z,2.20
2023-03-12T03:37:09.577Z,2.40
2023-03-12T03:38:09.598Z,2.50
2023-03-12T03:39:09.730Z,2.40
2023-03-12T03:40:09.747Z,2.30
2023-03-12T03:41:09.762Z,2.90
2023-03-12T03:42:09.814Z,2.20
2023-03-12T03:43:09.824Z,2.50
2023-03-12T03:44:10.906Z,2.20
2023-03-12T03:45:09.984Z,2.40
2023-03-12T03:46:09.855Z,2.20
2023-03-12T03:47:09.472Z,2.60
2023-03-12T03:48:09.588Z,2.40
2023-03-12T03:49:09.496Z,2.40
2023-03-12T03:50:09.473Z,2.50
2023-03-12T03:51:09.413Z,2.40
2023-03-12T03:52:09.672Z,2.50
2023-03-12T03:53:10.204Z,2.40
2023-03-12T03:54:10.378Z,2.40
2023-03-12T03:55:09.443Z,2.40
2023-03-12T03:56:09.441Z,2.40
2023-03-12T03:57:09.463Z,2.20
2023-03-12T03:58:09.454Z,2.40
2023-03-12T03:59:09.471Z,2.30
2023-03-12T04:00:09.531Z,2.20
2023-03-12T04:01:09.549Z,2.10
2023-03-12T04:02:09.487Z,1.90
2023-03-12T04:03:09.548Z,2.30
2023-03-12T04:04:09.488Z,2.30
2023-03-12T04:05:09.496Z,2.50
2023-03-12T04:06:09.510Z,2.30
2023-03-12T04:07:09.332Z,2.10
2023-03-12T04:08:09.518Z,2.10
2023-03-12T04:09:09.369Z,2.30
2023-03-12T04:10:09.534Z,2.30
2023-03-12T04:11:09.332Z,2.10
2023-03-12T04:12:09.316Z,2.30
2023-03-12T04:13:09.275Z,2.10
2023-03-12T04:14:09.526Z,2.10
2023-03-12T04:15:09.388Z,2.10
2023-03-12T04:16:09.295Z,2.00
2023-03-12T04:17:09.371Z,1.90
2023-03-12T04:18:09.439Z,2.20
2023-03-12T04:19:09.611Z,2.10
2023-03-12T04:20:09.594Z,1.90
2023-03-12T04:21:09.255Z,2.00
2023-03-12T04:22:09.812Z,2.20
2023-03-12T04:23:09.201Z,2.20
2023-03-12T04:24:09.836Z,2.30
2023-03-12T04:25:09.193Z,2.00
2023-03-12T04:26:09.662Z,2.20
2023-03-12T04:27:10.070Z,2.00
2023-03-12T04:28:09.849Z,2.00
2023-03-12T04:29:09.860Z,1.80
2023-03-12T04:30:09.153Z,2.30
2023-03-12T04:31:09.320Z,2.50
2023-03-12T04:32:09.267Z,2.10
2023-03-12T04:33:09.187Z,2.00
2023-03-12T04:34:09.121Z,2.00
2023-03-12T04:35:09.140Z,2.20
2023-03-12T04:36:09.637Z,2.00
2023-03-12T04:37:09.506Z,1.80
2023-03-12T04:38:09.103Z,1.90
2023-03-12T04:39:09.155Z,2.30
2023-03-12T04:40:09.116Z,2.00
2023-03-12T04:41:09.150Z,1.90
2023-03-12T04:42:09.218Z,2.00
2023-03-12T04:43:09.146Z,2.00
2023-03-12T04:44:12.305Z,2.00
2023-03-12T04:45:09.162Z,2.20
2023-03-12T04:46:09.343Z,2.00
2023-03-12T04:47:09.893Z,2.10
2023-03-12T04:48:09.049Z,1.90
2023-03-12T04:49:09.057Z,1.90
2023-03-12T04:50:09.127Z,2.40
2023-03-12T04:51:09.048Z,2.00
2023-03-12T04:52:09.036Z,2.10
2023-03-12T04:53:09.252Z,2.10
2023-03-12T04:54:09.234Z,2.00
2023-03-12T04:55:09.263Z,2.00
2023-03-12T04:56:08.980Z,2.00
2023-03-12T04:57:09.244Z,2.00
2023-03-12T04:58:09.037Z,2.30
2023-03-12T04:59:09.264Z,2.20
2023-03-12T05:00:09.189Z,1.90
2023-03-12T05:01:09.264Z,2.00
2023-03-12T05:02:09.279Z,2.20
2023-03-12T05:03:09.386Z,1.80
2023-03-12T05:04:09.400Z,1.90
2023-03-12T05:05:09.292Z,2.20
2023-03-12T05:06:09.099Z,2.00
2023-03-12T05:07:09.328Z,2.20
2023-03-12T05:08:09.157Z,2.10
2023-03-12T05:09:09.327Z,2.20
2023-03-12T05:10:09.332Z,2.40
2023-03-12T05:11:09.141Z,2.10
2023-03-12T05:12:09.147Z,2.20
2023-03-12T05:13:09.302Z,2.10
2023-03-12T05:14:09.386Z,2.20
2023-03-12T05:15:08.874Z,2.10
2023-03-12T05:16:08.977Z,2.00
2023-03-12T05:17:08.985Z,2.20
2023-03-12T05:18:08.841Z,2.10
2023-03-12T05:19:08.844Z,2.10
2023-03-12T05:20:08.830Z,2.10
2023-03-12T05:21:08.818Z,1.90
2023-03-12T05:22:08.819Z,1.90
2023-03-12T05:23:08.870Z,2.10
2023-03-12T05:24:08.803Z,2.10
2023-03-12T05:25:08.872Z,2.40
2023-03-12T05:26:08.828Z,1.80
2023-03-12T05:27:08.902Z,1.70
2023-03-12T05:28:08.860Z,2.00
2023-03-12T05:29:08.879Z,2.30
2023-03-12T05:30:08.877Z,1.90
2023-03-12T05:31:09.199Z,1.90
2023-03-12T05:32:09.087Z,2.10
2023-03-12T05:33:08.878Z,2.20
2023-03-12T05:34:09.086Z,1.90
2023-03-12T05:35:09.123Z,2.10
2023-03-12T05:36:09.162Z,1.80
2023-03-12T05:37:09.045Z,2.20
2023-03-12T05:38:09.130Z,1.80
2023-03-12T05:39:08.801Z,2.00
2023-03-12T05:40:09.151Z,2.00
2023-03-12T05:41:09.151Z,2.30
2023-03-12T05:42:09.144Z,2.00
2023-03-12T05:43:08.947Z,2.00
2023-03-12T05:44:09.157Z,1.90
2023-03-12T05:45:09.158Z,1.90
2023-03-12T05:46:08.820Z,1.90
2023-03-12T05:47:08.989Z,1.90
2023-03-12T05:48:08.802Z,2.00
2023-03-12T05:49:08.780Z,2.30
2023-03-12T05:50:08.650Z,2.10
2023-03-12T05:51:09.013Z,1.90
2023-03-12T05:52:08.622Z,2.00
2023-03-12T05:53:08.648Z,1.70
2023-03-12T05:54:08.611Z,1.90
2023-03-12T05:55:08.828Z,1.90
2023-03-12T05:56:09.016Z,2.00
2023-03-12T05:57:08.966Z,1.80
2023-03-12T05:58:09.275Z,1.80
2023-03-12T05:59:08.595Z,1.80
2023-03-12T06:00:08.590Z,1.70
2023-03-12T06:01:08.654Z,1.80
2023-03-12T06:02:08.693Z,2.40
2023-03-12T06:03:08.762Z,1.90
2023-03-12T06:04:08.663Z,1.90
2023-03-12T06:05:08.705Z,2.00
2023-03-12T06:06:08.942Z,2.10
2023-03-12T06:07:08.621Z,1.90
2023-03-12T06:08:08.710Z,1.60
2023-03-12T06:09:08.700Z,2.00
2023-03-12T06:10:09.003Z,1.70
2023-03-12T06:11:08.921Z,2.40
2023-03-12T06:12:09.154Z,1.80
2023-03-12T06:13:08.749Z,1.80
2023-03-12T06:14:09.139Z,1.70
2023-03-12T06:15:09.148Z,1.80
2023-03-12T06:16:09.160Z,2.30
2023-03-12T06:17:08.897Z,1.90
2023-03-12T06:18:08.760Z,1.90
2023-03-12T06:19:09.377Z,1.80
2023-03-12T06:20:09.246Z,1.60
2023-03-12T06:21:08.576Z,2.00
2023-03-12T06:22:09.203Z,1.70
2023-03-12T06:23:09.374Z,1.80
2023-03-12T06:24:08.638Z,1.80
2023-03-12T06:25:08.641Z,1.80
2023-03-12T06:26:08.444Z,1.70
2023-03-12T06:27:08.486Z,1.90
2023-03-12T06:28:08.422Z,2.00
2023-03-12T06:29:08.391Z,2.00
2023-03-12T06:30:08.447Z,1.90
2023-03-12T06:31:08.698Z,1.80
2023-03-12T06:32:08.852Z,1.80
2023-03-12T06:33:09.184Z,1.80
2023-03-12T06:34:08.465Z,1.80
2023-03-12T06:35:09.456Z,2.10
2023-03-12T06:36:08.681Z,1.60
2023-03-12T06:37:08.357Z,1.60
2023-03-12T06:38:08.327Z,1.70
2023-03-12T06:39:08.332Z,2.00
2023-03-12T06:40:08.319Z,1.90
2023-03-12T06:41:08.324Z,1.90
2023-03-12T06:42:08.310Z,2.00
2023-03-12T06:43:08.309Z,2.10
2023-03-12T06:44:08.297Z,1.80
2023-03-12T06:45:08.267Z,2.10
2023-03-12T06:46:08.288Z,1.80
2023-03-12T06:47:08.277Z,1.80
2023-03-12T06:48:08.428Z,1.80
2023-03-12T06:49:08.257Z,1.80
2023-03-12T06:50:08.240Z,1.80
2023-03-12T06:51:08.237Z,1.80
2023-03-12T06:52:08.228Z,1.80
2023-03-12T06:53:08.217Z,2.00
2023-03-12T06:54:08.244Z,2.20
2023-03-12T06:55:08.205Z,1.90
2023-03-12T06:56:08.203Z,2.20
2023-03-12T06:57:08.204Z,2.30
2023-03-12T06:58:09.084Z,1.90
2023-03-12T06:59:08.194Z,2.10
2023-03-12T07:00:08.242Z,1.80
2023-03-12T07:01:08.160Z,2.00
2023-03-12T07:02:08.217Z,2.00
2023-03-12T07:03:08.147Z,1.90
2023-03-12T07:04:08.225Z,2.10
2023-03-12T07:05:08.207Z,1.80
2023-03-12T07:06:08.229Z,1.90
2023-03-12T07:07:08.140Z,1.80
2023-03-12T07:08:08.143Z,1.90
2023-03-12T07:09:08.145Z,1.90
2023-03-12T07:10:08.152Z,2.00
2023-03-12T07:11:08.171Z,2.10
2023-03-12T07:12:08.210Z,2.00
2023-03-12T07:13:08.174Z,1.80
2023-03-12T07:14:08.289Z,1.90
2023-03-12T07:15:08.105Z,1.80
2023-03-12T07:16:08.147Z,1.80
2023-03-12T07:17:08.072Z,1.80
2023-03-12T07:18:08.101Z,1.80
2023-03-12T07:19:08.066Z,1.80
2023-03-12T07:20:08.054Z,1.70
2023-03-12T07:21:08.047Z,1.90
2023-03-12T07:22:08.042Z,1.90
2023-03-12T07:23:08.052Z,1.80
2023-03-12T07:24:08.051Z,2.10
2023-03-12T07:25:08.396Z,1.70
2023-03-12T07:26:08.033Z,1.80
2023-03-12T07:27:07.998Z,2.00
2023-03-12T07:28:08.014Z,1.70
2023-03-12T07:29:08.019Z,2.00
2023-03-12T07:30:08.426Z,1.80
2023-03-12T07:31:08.040Z,1.90
2023-03-12T07:32:07.976Z,1.80
2023-03-12T07:33:08.066Z,1.80
2023-03-12T07:34:08.179Z,2.00
2023-03-12T07:35:07.959Z,1.90
2023-03-12T07:36:08.084Z,1.90
2023-03-12T07:37:07.965Z,1.80
2023-03-12T07:38:07.990Z,2.10
2023-03-12T07:39:07.941Z,1.80
2023-03-12T07:40:08.082Z,1.80
2023-03-12T07:41:08.004Z,2.00
2023-03-12T07:42:08.010Z,2.10
2023-03-12T07:43:07.907Z,1.60
2023-03-12T07:44:08.111Z,2.00
2023-03-12T07:45:07.993Z,1.90
2023-03-12T07:46:07.886Z,2.00
2023-03-12T07:47:22.674Z,2.00
2023-03-12T07:48:07.906Z,2.00
2023-03-12T07:49:07.907Z,2.00
2023-03-12T07:50:07.904Z,1.90
2023-03-12T07:51:07.861Z,2.00
2023-03-12T07:52:07.867Z,2.10
2023-03-12T07:53:07.833Z,2.20
2023-03-12T07:54:07.848Z,2.40
2023-03-12T07:55:08.038Z,1.80
2023-03-12T07:56:07.926Z,2.00
2023-03-12T07:57:08.714Z,2.00
2023-03-12T07:58:08.450Z,2.10
2023-03-12T07:59:08.485Z,2.30
2023-03-12T08:00:07.871Z,2.10
2023-03-12T08:01:07.842Z,2.10
2023-03-12T08:02:08.242Z,2.20
2023-03-12T08:03:08.378Z,2.40
2023-03-12T08:04:07.914Z,1.80
2023-03-12T08:05:07.832Z,2.10
2023-03-12T08:06:07.778Z,2.00
2023-03-12T08:07:09.303Z,2.30
2023-03-12T08:08:07.740Z,2.10
2023-03-12T08:09:07.732Z,2.40
2023-03-12T08:10:07.893Z,2.10
2023-03-12T08:11:07.708Z,2.20
2023-03-12T08:12:07.751Z,2.20
2023-03-12T08:13:07.754Z,2.00
2023-03-12T08:14:07.746Z,2.00
2023-03-12T08:15:07.698Z,2.20
2023-03-12T08:16:09.533Z,2.30
2023-03-12T08:17:07.740Z,2.40
2023-03-12T08:18:07.683Z,2.50
2023-03-12T08:19:07.680Z,2.80
2023-03-12T08:20:07.697Z,2.40
2023-03-12T08:21:07.643Z,2.30
2023-03-12T08:22:07.657Z,2.30
2023-03-12T08:23:07.657Z,2.30
2023-03-12T08:24:07.635Z,2.40
2023-03-12T08:25:07.634Z,2.20
2023-03-12T08:26:07.625Z,2.30
2023-03-12T08:27:07.621Z,2.30
2023-03-12T08:28:07.602Z,2.60
2023-03-12T08:29:07.603Z,2.70
2023-03-12T08:30:07.631Z,2.60
2023-03-12T08:31:07.572Z,2.90
2023-03-12T08:32:07.620Z,2.60
2023-03-12T08:33:07.628Z,2.90
2023-03-12T08:34:07.582Z,2.70
2023-03-12T08:35:07.570Z,3.20
2023-03-12T08:36:07.542Z,2.90
2023-03-12T08:37:07.657Z,3.20
2023-03-12T08:38:07.530Z,3.10
2023-03-12T08:39:07.542Z,2.80
2023-03-12T08:40:07.550Z,2.90
2023-03-12T08:41:07.559Z,3.10
2023-03-12T08:42:07.512Z,2.80
2023-03-12T08:43:07.523Z,3.00
2023-03-12T08:44:07.508Z,2.90
2023-03-12T08:45:07.480Z,3.00
2023-03-12T08:46:09.457Z,2.90
2023-03-12T08:47:07.469Z,2.70
2023-03-12T08:48:07.459Z,2.70
2023-03-12T08:49:07.456Z,2.60
2023-03-12T08:50:07.455Z,2.70
2023-03-12T08:51:07.479Z,2.90
2023-03-12T08:52:07.442Z,2.80
2023-03-12T08:53:07.420Z,2.90
2023-03-12T08:54:07.430Z,3.00
2023-03-12T08:55:07.425Z,3.00
2023-03-12T08:56:07.443Z,2.90
2023-03-12T08:57:07.436Z,2.80
2023-03-12T08:58:07.411Z,3.00
2023-03-12T08:59:07.391Z,2.90
2023-03-12T09:00:07.390Z,3.20
2023-03-12T09:01:08.290Z,3.00
2023-03-12T09:02:08.469Z,3.30
2023-03-12T09:03:07.907Z,3.20
2023-03-12T09:04:07.418Z,3.00
2023-03-12T09:05:07.378Z,2.90
2023-03-12T09:06:07.372Z,3.40
2023-03-12T09:07:07.467Z,3.00
2023-03-12T09:08:07.430Z,3.20
2023-03-12T09:09:07.372Z,3.10
2023-03-12T09:10:07.363Z,3.30
2023-03-12T09:11:07.374Z,3.20
2023-03-12T09:12:07.339Z,3.50
2023-03-12T09:13:07.462Z,3.40
2023-03-12T09:15:01.121Z,3.30
2023-03-12T09:15:07.312Z,3.10
2023-03-12T09:16:07.304Z,3.10
2023-03-12T09:17:07.308Z,3.60
2023-03-12T09:18:07.278Z,3.30
2023-03-12T09:19:07.254Z,3.30
2023-03-12T09:20:07.942Z,3.60
2023-03-12T09:21:07.324Z,3.40
2023-03-12T09:22:07.293Z,3.90
2023-03-12T09:23:07.890Z,3.90
2023-03-12T09:24:07.234Z,3.80
2023-03-12T09:25:07.249Z,3.20
2023-03-12T09:26:07.230Z,3.30
2023-03-12T09:27:07.240Z,3.60
2023-03-12T09:28:07.274Z,3.40
2023-03-12T09:29:07.200Z,3.60
2023-03-12T09:30:07.199Z,3.40
2023-03-12T09:31:07.239Z,3.30
2023-03-12T09:32:07.200Z,3.50
2023-03-12T09:33:07.181Z,3.30
2023-03-12T09:34:07.183Z,3.60
2023-03-12T09:35:07.157Z,3.60
2023-03-12T09:36:07.176Z,3.90
2023-03-12T09:37:07.133Z,4.30
2023-03-12T09:38:07.151Z,3.50
2023-03-12T09:39:07.126Z,3.10
2023-03-12T09:40:07.128Z,3.30
2023-03-12T09:41:07.131Z,3.70
2023-03-12T09:42:07.152Z,3.60
2023-03-12T09:43:07.094Z,3.30
2023-03-12T09:44:07.093Z,3.60
2023-03-12T09:45:07.254Z,3.30
2023-03-12T09:46:07.095Z,3.40
2023-03-12T09:47:07.074Z,3.50
2023-03-12T09:48:07.074Z,3.90
2023-03-12T09:49:07.051Z,3.30
2023-03-12T09:50:07.064Z,3.70
2023-03-12T09:51:07.040Z,3.10
2023-03-12T09:52:07.080Z,3.10
2023-03-12T09:53:07.077Z,3.30
2023-03-12T09:54:07.032Z,2.90
2023-03-12T09:55:07.058Z,3.50
2023-03-12T09:56:07.009Z,3.00
2023-03-12T09:57:07.014Z,3.20
2023-03-12T09:58:07.074Z,3.10
2023-03-12T09:59:06.997Z,3.30
2023-03-12T10:00:07.004Z,3.20
2023-03-12T10:01:06.975Z,3.30
2023-03-12T10:02:06.992Z,2.90
2023-03-12T10:03:06.980Z,3.00
2023-03-12T10:04:07.007Z,2.80
2023-03-12T10:05:06.986Z,3.50
2023-03-12T10:06:07.017Z,3.20
2023-03-12T10:07:06.969Z,3.00
2023-03-12T10:08:23.150Z,3.00
2023-03-12T10:09:06.962Z,3.30
2023-03-12T10:10:06.972Z,3.50
2023-03-12T10:11:06.918Z,3.40
2023-03-12T10:12:06.939Z,3.20
2023-03-12T10:13:06.912Z,3.10
2023-03-12T10:14:07.717Z,3.50
2023-03-12T10:15:06.897Z,3.40
2023-03-12T10:16:07.003Z,3.20
2023-03-12T10:17:06.914Z,3.20
2023-03-12T10:18:07.857Z,3.20
2023-03-12T10:19:07.034Z,3.00
2023-03-12T10:20:06.898Z,4.00
2023-03-12T10:21:06.868Z,3.60
2023-03-12T10:22:06.885Z,3.30
2023-03-12T10:23:06.957Z,4.60
2023-03-12T10:24:06.830Z,3.80
2023-03-12T10:25:07.095Z,3.60
2023-03-12T10:26:06.843Z,3.40
2023-03-12T10:27:06.830Z,3.50
2023-03-12T10:28:06.870Z,3.20
2023-03-12T10:29:06.920Z,3.00
2023-03-12T10:30:06.839Z,3.10
2023-03-12T10:31:06.852Z,3.30
2023-03-12T10:32:06.793Z,3.00
2023-03-12T10:33:06.862Z,2.80
2023-03-12T10:34:06.794Z,3.00
2023-03-12T10:35:06.743Z,3.00
2023-03-12T10:36:07.097Z,2.50
2023-03-12T10:37:07.052Z,2.70
2023-03-12T10:38:07.066Z,2.90
2023-03-12T10:39:07.005Z,3.10
2023-03-12T10:40:07.067Z,2.70
2023-03-12T10:41:06.702Z,2.70
2023-03-12T10:42:06.734Z,2.70
2023-03-12T10:43:06.807Z,2.80
2023-03-12T10:44:06.754Z,3.20
2023-03-12T10:45:06.680Z,3.10
2023-03-12T10:46:06.699Z,3.00
2023-03-12T10:47:07.113Z,2.60
2023-03-12T10:48:06.664Z,2.70
2023-03-12T10:49:07.147Z,2.70
2023-03-12T10:50:07.133Z,2.50
2023-03-12T10:51:06.671Z,2.60
2023-03-12T10:52:06.694Z,2.60
2023-03-12T10:53:06.644Z,2.70
2023-03-12T10:54:06.706Z,2.60
2023-03-12T10:55:06.639Z,2.60
2023-03-12T10:56:07.514Z,2.40
2023-03-12T10:57:07.470Z,2.40
2023-03-12T10:58:06.622Z,2.60
2023-03-12T10:59:06.608Z,2.40
2023-03-12T11:00:06.649Z,2.40
2023-03-12T11:01:06.576Z,2.80
2023-03-12T11:02:06.720Z,3.00
2023-03-12T11:03:06.587Z,2.70
2023-03-12T11:04:06.901Z,2.60
2023-03-12T11:05:06.547Z,2.80
2023-03-12T11:06:06.891Z,2.50
2023-03-12T11:07:06.567Z,2.70
2023-03-12T11:08:06.728Z,2.80
2023-03-12T11:09:21.870Z,2.90
2023-03-12T11:10:06.557Z,2.80
2023-03-12T11:11:07.090Z,2.60
2023-03-12T11:12:06.575Z,2.40
2023-03-12T11:13:07.093Z,2.50
2023-03-12T11:14:06.584Z,2.50
2023-03-12T11:15:06.503Z,2.40
2023-03-12T11:16:06.492Z,2.60
2023-03-12T11:17:06.659Z,2.50
2023-03-12T11:18:06.513Z,2.60
2023-03-12T11:19:06.457Z,2.80
2023-03-12T11:20:06.444Z,2.70
2023-03-12T11:21:06.445Z,2.40
2023-03-12T11:22:06.432Z,2.70
2023-03-12T11:23:06.443Z,2.80
2023-03-12T11:24:06.417Z,2.70
2023-03-12T11:25:06.414Z,2.70
2023-03-12T11:26:06.401Z,2.80
2023-03-12T11:27:06.410Z,2.70
2023-03-12T11:28:06.833Z,2.40
2023-03-12T11:29:06.464Z,2.60
2023-03-12T11:30:06.447Z,2.40
2023-03-12T11:31:06.424Z,2.50
2023-03-12T11:32:06.388Z,2.30
2023-03-12T11:33:06.382Z,2.50
2023-03-12T11:34:06.352Z,2.50
2023-03-12T11:35:06.356Z,2.50
2023-03-12T11:36:06.651Z,2.70
2023-03-12T11:37:06.660Z,2.40
2023-03-12T11:38:06.648Z,2.50
2023-03-12T11:39:06.326Z,2.40
2023-03-12T11:40:06.329Z,2.70
2023-03-12T11:41:06.381Z,2.10
2023-03-12T11:42:06.304Z,2.40
2023-03-12T11:43:06.317Z,2.50
2023-03-12T11:44:06.313Z,2.80
2023-03-12T11:45:06.330Z,2.50
2023-03-12T11:46:06.279Z,2.50
2023-03-12T11:47:06.266Z,2.50
2023-03-12T11:48:06.275Z,2.50
2023-03-12T11:49:06.266Z,2.40
2023-03-12T11:50:06.246Z,2.30
2023-03-12T11:51:06.254Z,2.60
2023-03-12T11:52:06.244Z,2.60
2023-03-12T11:53:06.248Z,2.70
2023-03-12T11:54:06.365Z,2.50
2023-03-12T11:55:06.258Z,2.70
2023-03-12T11:56:06.196Z,2.30
2023-03-12T11:57:06.193Z,2.70
2023-03-12T11:58:06.216Z,2.70
2023-03-12T11:59:06.322Z,2.40
2023-03-12T12:00:06.184Z,2.30
2023-03-12T12:01:06.176Z,2.20
2023-03-12T12:02:06.256Z,2.00
2023-03-12T12:03:06.196Z,2.10
2023-03-12T12:04:06.190Z,2.30
2023-03-12T12:05:06.161Z,2.00
2023-03-12T12:06:06.150Z,2.00
2023-03-12T12:07:06.140Z,2.20
2023-03-12T12:08:06.136Z,2.10
2023-03-12T12:09:06.180Z,2.10
2023-03-12T12:10:06.117Z,2.00
2023-03-12T12:11:06.118Z,2.00
2023-03-12T12:12:06.107Z,2.00
2023-03-12T12:13:06.094Z,2.20
2023-03-12T12:14:06.098Z,2.10
2023-03-12T12:15:06.084Z,2.00
2023-03-12T12:16:06.101Z,2.00
2023-03-12T12:17:06.072Z,2.00
2023-03-12T12:18:06.056Z,1.80
2023-03-12T12:19:06.073Z,1.90
2023-03-12T12:20:06.052Z,1.90
2023-03-12T12:21:06.097Z,1.80
2023-03-12T12:22:06.038Z,1.80
2023-03-12T12:23:06.022Z,1.70
2023-03-12T12:24:06.032Z,1.80
2023-03-12T12:25:06.031Z,2.00
2023-03-12T12:26:06.015Z,1.80
2023-03-12T12:27:06.088Z,1.40
2023-03-12T12:28:05.999Z,2.00
2023-03-12T12:29:06.037Z,2.10
2023-03-12T12:30:05.974Z,2.40
2023-03-12T12:31:05.978Z,2.60
2023-03-12T12:32:06.038Z,2.20
2023-03-12T12:33:05.988Z,2.40
2023-03-12T12:34:05.962Z,2.10
2023-03-12T12:35:05.958Z,2.10
2023-03-12T12:36:05.982Z,2.30
2023-03-12T12:37:05.936Z,2.40
2023-03-12T12:38:05.911Z,2.20
2023-03-12T12:39:05.943Z,2.50
2023-03-12T12:40:05.918Z,2.20
2023-03-12T12:41:05.909Z,2.30
2023-03-12T12:42:05.892Z,2.30
2023-03-12T12:43:05.967Z,2.40
2023-03-12T12:44:05.904Z,2.50
2023-03-12T12:45:05.881Z,2.60
2023-03-12T12:46:05.952Z,2.40
2023-03-12T12:47:06.282Z,2.40
2023-03-12T12:48:05.847Z,2.50
2023-03-12T12:49:05.927Z,2.60
2023-03-12T12:50:05.850Z,2.50
2023-03-12T12:51:08.713Z,2.60
2023-03-12T12:52:05.823Z,2.50
2023-03-12T12:53:05.817Z,2.60
2023-03-12T12:54:05.832Z,2.60
2023-03-12T12:55:05.803Z,2.70
2023-03-12T12:56:05.805Z,2.60
2023-03-12T12:57:05.843Z,2.80
2023-03-12T12:58:05.785Z,2.40
2023-03-12T12:59:05.853Z,2.70
2023-03-12T13:00:05.794Z,2.80
2023-03-12T13:01:05.792Z,2.90
2023-03-12T13:02:05.763Z,2.60
2023-03-12T13:03:05.956Z,2.70
2023-03-12T13:04:06.943Z,2.70
2023-03-12T13:05:05.747Z,2.90
2023-03-12T13:06:05.728Z,2.80
2023-03-12T13:07:05.755Z,3.00
2023-03-12T13:08:06.236Z,2.90
2023-03-12T13:09:05.714Z,2.80
2023-03-12T13:10:05.784Z,2.80
2023-03-12T13:11:17.255Z,2.60
2023-03-12T13:12:05.700Z,3.10
2023-03-12T13:13:05.726Z,2.60
2023-03-12T13:14:05.716Z,3.00
2023-03-12T13:15:06.086Z,2.90
2023-03-12T13:16:05.701Z,2.70
2023-03-12T13:17:05.683Z,2.60
2023-03-12T13:18:05.660Z,3.10